createdAt,value
2022-09-28T00:01:33.504Z,75530.00
2022-09-28T00:04:00.099Z,75530.00
2022-09-28T00:06:27.960Z,75530.00
2022-09-28T00:08:54.471Z,75530.00
2022-09-28T00:11:21.707Z,75522.00
2022-09-28T00:13:52.527Z,75526.00
2022-09-28T00:16:20.210Z,75526.00
2022-09-28T00:18:46.589Z,75528.00
2022-09-28T00:21:17.422Z,75526.00
2022-09-28T00:24:03.595Z,75526.00
2022-09-28T00:26:31.460Z,75528.00
2022-09-28T00:28:59.235Z,75526.00
2022-09-28T00:31:26.551Z,75530.00
2022-09-28T00:33:53.559Z,75524.00
2022-09-28T00:36:19.907Z,75518.00
2022-09-28T00:38:46.465Z,75518.00
2022-09-28T00:41:13.211Z,75518.00
2022-09-28T00:43:39.748Z,75514.00
2022-09-28T00:46:12.858Z,75508.00
2022-09-28T00:48:40.384Z,75512.00
2022-09-28T00:51:09.892Z,75510.00
2022-09-28T00:53:37.983Z,75514.00
2022-09-28T00:56:11.219Z,75512.00
2022-09-28T00:58:43.577Z,75510.00
2022-09-28T01:01:10.087Z,75512.00
2022-09-28T01:03:37.682Z,75506.00
2022-09-28T01:06:04.875Z,75506.00
2022-09-28T01:08:32.797Z,75502.00
2022-09-28T01:10:59.982Z,75506.00
2022-09-28T01:13:27.016Z,75506.00
2022-09-28T01:15:53.350Z,75506.00
2022-09-28T01:18:26.288Z,75508.00
2022-09-28T01:21:25.168Z,75506.00
2022-09-28T01:24:10.952Z,75506.00
2022-09-28T01:26:40.362Z,75500.00
2022-09-28T01:29:15.837Z,75500.00
2022-09-28T01:31:44.296Z,75502.00
2022-09-28T01:34:16.005Z,75500.00
2022-09-28T01:36:46.983Z,75500.00
2022-09-28T01:39:16.563Z,75502.00
2022-09-28T01:41:44.783Z,75504.00
2022-09-28T01:44:12.981Z,75498.00
2022-09-28T01:46:42.125Z,75506.00
2022-09-28T01:49:11.092Z,75500.00
2022-09-28T01:52:00.461Z,75508.00
2022-09-28T01:54:31.588Z,75504.00
2022-09-28T01:57:00.509Z,75506.00
2022-09-28T01:59:29.483Z,75504.00
2022-09-28T02:01:59.559Z,75504.00
2022-09-28T02:04:36.166Z,75500.00
2022-09-28T02:07:06.446Z,75498.00
2022-09-28T02:09:36.348Z,75500.00
2022-09-28T02:12:23.363Z,75502.00
2022-09-28T02:14:49.799Z,75504.00
2022-09-28T02:17:16.302Z,75502.00
2022-09-28T02:19:43.157Z,75498.00
2022-09-28T02:22:09.511Z,75494.00
2022-09-28T02:24:40.899Z,75498.00
2022-09-28T02:27:14.092Z,75498.00
2022-09-28T02:29:40.450Z,75498.00
2022-09-28T02:32:06.952Z,75494.00
2022-09-28T02:34:33.480Z,75492.00
2022-09-28T02:37:00.108Z,75490.00
2022-09-28T02:39:26.936Z,75494.00
2022-09-28T02:42:05.693Z,75494.00
2022-09-28T02:44:47.229Z,75490.00
2022-09-28T02:47:25.688Z,75490.00
2022-09-28T02:49:55.140Z,75486.00
2022-09-28T02:52:51.118Z,75490.00
2022-09-28T02:55:18.563Z,75486.00
2022-09-28T02:57:57.482Z,75488.00
2022-09-28T03:00:24.252Z,75484.00
2022-09-28T03:03:05.937Z,75480.00
2022-09-28T03:05:38.790Z,75484.00
2022-09-28T03:08:05.102Z,75486.00
2022-09-28T03:10:49.767Z,75486.00
2022-09-28T03:13:16.733Z,75486.00
2022-09-28T03:15:48.565Z,75486.00
2022-09-28T03:18:15.443Z,75478.00
2022-09-28T03:20:41.910Z,75476.00
2022-09-28T03:23:25.122Z,75474.00
2022-09-28T03:25:51.870Z,75474.00
2022-09-28T03:28:18.266Z,75470.00
2022-09-28T03:30:44.587Z,75468.00
2022-09-28T03:33:10.964Z,75474.00
2022-09-28T03:35:37.314Z,75474.00
2022-09-28T03:38:03.672Z,75474.00
2022-09-28T03:40:30.085Z,75474.00
2022-09-28T03:42:56.668Z,75472.00
2022-09-28T03:45:23.021Z,75466.00
2022-09-28T03:47:49.421Z,75466.00
2022-09-28T03:50:15.880Z,75458.00
2022-09-28T03:52:42.369Z,75458.00
2022-09-28T03:55:08.913Z,75456.00
2022-09-28T03:57:35.326Z,75447.97
2022-09-28T04:00:01.994Z,75445.97
2022-09-28T04:02:28.478Z,75437.97
2022-09-28T04:04:54.880Z,75441.97
2022-09-28T04:07:21.221Z,75433.97
2022-09-28T04:09:47.543Z,75429.97
2022-09-28T04:12:14.151Z,75433.97
2022-09-28T04:14:40.484Z,75429.97
2022-09-28T04:17:07.228Z,75429.97
2022-09-28T04:19:33.764Z,75429.97
2022-09-28T04:22:01.751Z,75433.97
2022-09-28T04:24:28.118Z,75431.97
2022-09-28T04:27:14.406Z,75431.97
2022-09-28T04:29:43.169Z,75421.97
2022-09-28T04:32:10.179Z,75423.97
2022-09-28T04:34:39.601Z,75425.97
2022-09-28T04:37:08.322Z,75423.97
2022-09-28T04:39:34.694Z,75425.97
2022-09-28T04:42:01.657Z,75421.97
2022-09-28T04:44:28.068Z,75425.97
2022-09-28T04:46:55.419Z,75425.97
2022-09-28T04:49:21.739Z,75423.97
2022-09-28T04:51:48.137Z,75421.97
2022-09-28T04:54:14.512Z,75427.97
2022-09-28T04:56:41.812Z,75425.97
2022-09-28T04:59:08.135Z,75425.97
2022-09-28T05:01:34.817Z,75429.97
2022-09-28T05:04:01.280Z,75431.97
2022-09-28T05:06:30.545Z,75433.97
2022-09-28T05:08:57.526Z,75435.97
2022-09-28T05:11:24.312Z,75437.97
2022-09-28T05:13:51.767Z,75445.97
2022-09-28T05:16:18.217Z,75441.97
2022-09-28T05:18:46.675Z,75445.97
2022-09-28T05:21:13.912Z,75441.97
2022-09-28T05:23:40.922Z,75445.97
2022-09-28T05:26:07.744Z,75445.97
2022-09-28T05:28:34.258Z,75445.97
2022-09-28T05:31:01.122Z,75433.97
2022-09-28T05:33:28.191Z,75439.97
2022-09-28T05:35:59.016Z,75437.97
2022-09-28T05:38:27.370Z,75437.97
2022-09-28T05:40:53.841Z,75441.97
2022-09-28T05:43:20.340Z,75435.97
2022-09-28T05:45:47.817Z,75437.97
2022-09-28T05:48:15.737Z,75433.97
2022-09-28T05:50:42.192Z,75427.97
2022-09-28T05:53:09.554Z,75427.97
2022-09-28T05:55:36.295Z,75425.97
2022-09-28T05:58:04.204Z,75413.97
2022-09-28T06:00:31.134Z,75413.97
2022-09-28T06:02:57.518Z,75415.97
2022-09-28T06:05:24.499Z,75409.97
2022-09-28T06:07:50.859Z,75411.97
2022-09-28T06:10:18.067Z,75409.97
2022-09-28T06:12:45.593Z,75405.97
2022-09-28T06:15:12.262Z,75403.97
2022-09-28T06:17:38.645Z,75407.97
2022-09-28T06:20:05.188Z,75409.97
2022-09-28T06:22:31.557Z,75409.97
2022-09-28T06:24:57.913Z,75407.97
2022-09-28T06:27:24.325Z,75403.97
2022-09-28T06:29:50.714Z,75399.97
2022-09-28T06:32:17.055Z,75397.97
2022-09-28T06:34:43.398Z,75393.97
2022-09-28T06:37:09.768Z,75393.97
2022-09-28T06:39:36.114Z,75389.97
2022-09-28T06:42:03.902Z,75389.97
2022-09-28T06:44:32.280Z,75393.97
2022-09-28T06:46:58.656Z,75385.97
2022-09-28T06:49:29.201Z,75381.97
2022-09-28T06:51:55.740Z,75381.97
2022-09-28T06:54:25.705Z,75369.97
2022-09-28T06:56:52.703Z,75363.94
2022-09-28T06:59:19.039Z,75353.94
2022-09-28T07:01:45.438Z,75353.94
2022-09-28T07:04:11.839Z,75355.94
2022-09-28T07:06:38.588Z,75357.94
2022-09-28T07:09:21.359Z,75361.94
2022-09-28T07:11:53.763Z,75363.94
2022-09-28T07:14:39.679Z,75365.94
2022-09-28T07:17:13.563Z,75369.97
2022-09-28T07:19:40.730Z,75369.97
2022-09-28T07:22:07.110Z,75365.94
2022-09-28T07:24:33.561Z,75371.97
2022-09-28T07:26:59.923Z,75361.94
2022-09-28T07:29:26.352Z,75369.97
2022-09-28T07:31:53.502Z,75373.97
2022-09-28T07:34:23.075Z,75377.97
2022-09-28T07:36:49.456Z,75379.97
2022-09-28T07:39:15.859Z,75381.97
2022-09-28T07:41:43.046Z,75381.97
2022-09-28T07:44:09.381Z,75383.97
2022-09-28T07:46:36.107Z,75389.97
2022-09-28T07:49:08.353Z,75385.97
2022-09-28T07:51:37.870Z,75389.97
2022-09-28T07:54:04.337Z,75383.97
2022-09-28T07:56:30.997Z,75387.97
2022-09-28T07:58:57.355Z,75383.97
2022-09-28T08:01:23.727Z,75385.97
2022-09-28T08:03:50.177Z,75391.97
2022-09-28T08:06:17.159Z,75397.97
2022-09-28T08:08:44.655Z,75397.97
2022-09-28T08:11:12.021Z,75393.97
2022-09-28T08:13:38.938Z,75397.97
2022-09-28T08:16:07.493Z,75395.97
2022-09-28T08:18:34.779Z,75397.97
2022-09-28T08:21:23.761Z,75397.97
2022-09-28T08:23:50.612Z,75391.97
2022-09-28T08:26:16.985Z,75397.97
2022-09-28T08:28:45.036Z,75405.97
2022-09-28T08:31:11.647Z,75405.97
2022-09-28T08:33:38.479Z,75413.97
2022-09-28T08:36:06.032Z,75409.97
2022-09-28T08:38:32.887Z,75409.97
2022-09-28T08:41:05.168Z,75405.97
2022-09-28T08:43:50.477Z,75405.97
2022-09-28T08:46:22.687Z,75401.97
2022-09-28T08:49:13.484Z,75401.97
2022-09-28T08:51:43.754Z,75405.97
2022-09-28T08:54:18.662Z,75405.97
2022-09-28T08:56:49.172Z,75405.97
2022-09-28T08:59:24.343Z,75405.97
2022-09-28T09:01:57.688Z,75405.97
2022-09-28T09:04:24.659Z,75397.97
2022-09-28T09:06:57.304Z,75401.97
2022-09-28T09:09:45.484Z,75397.97
2022-09-28T09:12:21.359Z,75401.97
2022-09-28T09:14:50.752Z,75397.97
2022-09-28T09:17:29.301Z,75397.97
2022-09-28T09:20:03.086Z,75397.97
2022-09-28T09:22:38.674Z,75397.97
2022-09-28T09:25:07.889Z,75401.97
2022-09-28T09:27:53.471Z,75401.97
2022-09-28T09:30:22.086Z,75401.97
2022-09-28T09:33:06.993Z,75397.97
2022-09-28T09:35:33.360Z,75401.97
2022-09-28T09:38:11.810Z,75401.97
2022-09-28T09:40:47.488Z,75403.97
2022-09-28T09:43:27.924Z,75403.97
2022-09-28T09:46:06.847Z,75405.97
2022-09-28T09:48:48.822Z,75397.97
2022-09-28T09:51:25.004Z,75405.97
2022-09-28T09:54:00.067Z,75399.97
2022-09-28T09:56:32.261Z,75397.97
2022-09-28T09:59:02.746Z,75401.97
2022-09-28T10:01:40.382Z,75397.97
2022-09-28T10:04:11.959Z,75397.97
2022-09-28T10:06:39.093Z,75397.97
2022-09-28T10:09:08.531Z,75401.97
2022-09-28T10:11:42.470Z,75397.97
2022-09-28T10:14:13.697Z,75397.97
2022-09-28T10:16:40.128Z,75397.97
2022-09-28T10:19:08.539Z,75397.97
2022-09-28T10:21:37.650Z,75397.97
2022-09-28T10:24:04.076Z,75397.97
2022-09-28T10:26:36.000Z,75397.97
2022-09-28T10:29:04.552Z,75401.97
2022-09-28T10:31:35.117Z,75403.97
2022-09-28T10:34:01.666Z,75399.97
2022-09-28T10:36:37.964Z,75403.97
2022-09-28T10:39:05.507Z,75401.97
2022-09-28T10:41:32.364Z,75401.97
2022-09-28T10:44:07.491Z,75401.97
2022-09-28T10:46:34.841Z,75399.97
2022-09-28T10:49:04.135Z,75401.97
2022-09-28T10:51:44.114Z,75401.97
2022-09-28T10:54:18.796Z,75397.97
2022-09-28T10:56:45.843Z,75405.97
2022-09-28T10:59:30.558Z,75405.97
2022-09-28T11:01:59.475Z,75405.97
2022-09-28T11:04:27.555Z,75405.97
2022-09-28T11:06:56.527Z,75401.97
2022-09-28T11:09:24.000Z,75397.97
2022-09-28T11:11:51.843Z,75401.97
2022-09-28T11:14:24.304Z,75395.97
2022-09-28T11:17:10.744Z,75397.97
2022-09-28T11:19:37.058Z,75397.97
2022-09-28T11:22:20.149Z,75401.97
2022-09-28T11:24:47.256Z,75405.97
2022-09-28T11:27:22.049Z,75405.97
2022-09-28T11:29:55.655Z,75401.97
2022-09-28T11:32:26.751Z,75401.97
2022-09-28T11:34:59.510Z,75397.97
2022-09-28T11:37:31.045Z,75397.97
2022-09-28T11:40:18.124Z,75401.97
2022-09-28T11:43:03.224Z,75403.97
2022-09-28T11:45:35.498Z,75405.97
2022-09-28T11:48:04.734Z,75405.97
2022-09-28T11:50:31.156Z,75399.97
2022-09-28T11:53:01.741Z,75401.97
2022-09-28T11:55:31.339Z,75403.97
2022-09-28T11:58:03.539Z,75399.97
2022-09-28T12:00:33.573Z,75403.97
2022-09-28T12:03:29.434Z,75405.97
2022-09-28T12:05:59.626Z,75401.97
2022-09-28T12:08:27.325Z,75405.97
2022-09-28T12:11:12.488Z,75409.97
2022-09-28T12:13:41.179Z,75407.97
2022-09-28T12:16:53.176Z,75405.97
2022-09-28T12:19:18.615Z,75401.97
2022-09-28T12:22:00.872Z,75401.97
2022-09-28T12:24:44.387Z,75401.97
2022-09-28T12:27:21.466Z,75401.97
2022-09-28T12:29:57.145Z,75399.97
2022-09-28T12:32:29.270Z,75405.97
2022-09-28T12:34:56.042Z,75401.97
2022-09-28T12:37:25.791Z,75403.97
2022-09-28T12:40:02.891Z,75399.97
2022-09-28T12:42:30.114Z,75403.97
2022-09-28T12:45:17.700Z,75403.97
2022-09-28T12:47:50.187Z,75403.97
2022-09-28T12:53:15.371Z,75401.97
2022-09-28T12:55:51.064Z,75401.97
2022-09-28T12:58:29.587Z,75405.97
2022-09-28T13:01:11.383Z,75403.97
2022-09-28T13:03:37.829Z,75405.97
2022-09-28T13:06:05.346Z,75405.97
2022-09-28T13:08:37.841Z,75405.97
2022-09-28T13:11:22.561Z,75403.97
2022-09-28T13:13:53.044Z,75405.97
2022-09-28T13:16:19.431Z,75401.97
2022-09-28T13:18:48.603Z,75403.97
2022-09-28T13:21:22.822Z,75405.97
2022-09-28T13:23:50.809Z,75405.97
2022-09-28T13:26:17.400Z,75407.97
2022-09-28T13:28:45.417Z,75413.97
2022-09-28T13:31:12.681Z,75409.97
2022-09-28T13:33:40.621Z,75409.97
2022-09-28T13:36:25.418Z,75401.97
2022-09-28T13:38:52.486Z,75399.97
2022-09-28T13:41:24.755Z,75397.97
2022-09-28T13:43:57.278Z,75405.97
2022-09-28T13:46:42.424Z,75411.97
2022-09-28T13:49:15.181Z,75405.97
2022-09-28T13:51:41.865Z,75405.97
2022-09-28T13:54:46.592Z,75405.97
2022-09-28T13:57:32.964Z,75403.97
2022-09-28T14:00:11.909Z,75409.97
2022-09-28T14:02:46.756Z,75409.97
2022-09-28T14:05:31.629Z,75409.97
2022-09-28T14:08:11.339Z,75413.97
2022-09-28T14:10:54.766Z,75417.97
2022-09-28T14:13:40.080Z,75413.97
2022-09-28T14:16:18.865Z,75413.97
2022-09-28T14:18:49.573Z,75411.97
2022-09-28T14:21:22.039Z,75417.97
2022-09-28T14:24:08.037Z,75417.97
2022-09-28T14:26:52.615Z,75417.97
2022-09-28T14:29:22.131Z,75415.97
2022-09-28T14:31:48.555Z,75421.97
2022-09-28T14:34:32.667Z,75421.97
2022-09-28T14:37:18.467Z,75429.97
2022-09-28T14:40:04.456Z,75425.97
2022-09-28T14:42:30.843Z,75431.97
2022-09-28T14:45:06.725Z,75433.97
2022-09-28T14:47:43.435Z,75433.97
2022-09-28T14:50:23.186Z,75437.97
2022-09-28T14:52:51.488Z,75443.97
2022-09-28T14:55:20.997Z,75443.97
2022-09-28T14:57:52.839Z,75445.97
2022-09-28T15:00:24.456Z,75443.97
2022-09-28T15:02:52.736Z,75450.00
2022-09-28T15:05:24.555Z,75447.97
2022-09-28T15:07:52.659Z,75447.97
2022-09-28T15:10:27.475Z,75443.97
2022-09-28T15:12:56.005Z,75443.97
2022-09-28T15:15:30.466Z,75447.97
2022-09-28T15:18:04.143Z,75445.97
2022-09-28T15:20:32.270Z,75454.00
2022-09-28T15:22:59.191Z,75458.00
2022-09-28T15:25:27.060Z,75456.00
2022-09-28T15:27:54.912Z,75458.00
2022-09-28T15:30:25.830Z,75458.00
2022-09-28T15:32:54.713Z,75462.00
2022-09-28T15:35:22.350Z,75462.00
2022-09-28T15:37:52.228Z,75468.00
2022-09-28T15:40:28.854Z,75466.00
2022-09-28T15:42:59.047Z,75470.00
2022-09-28T15:45:27.666Z,75466.00
2022-09-28T15:47:57.640Z,75462.00
2022-09-28T15:50:31.677Z,75466.00
2022-09-28T15:53:02.380Z,75458.00
2022-09-28T15:55:30.864Z,75462.00
2022-09-28T15:58:12.578Z,75458.00
2022-09-28T16:00:40.225Z,75460.00
2022-09-28T16:03:07.204Z,75466.00
2022-09-28T16:05:40.942Z,75470.00
2022-09-28T16:08:14.230Z,75470.00
2022-09-28T16:10:53.356Z,75474.00
2022-09-28T16:13:21.125Z,75478.00
2022-09-28T16:15:55.146Z,75480.00
2022-09-28T16:18:23.575Z,75482.00
2022-09-28T16:20:51.755Z,75480.00
2022-09-28T16:23:21.507Z,75486.00
2022-09-28T16:26:03.480Z,75486.00
2022-09-28T16:28:34.580Z,75488.00
2022-09-28T16:31:06.061Z,75486.00
2022-09-28T16:33:39.676Z,75490.00
2022-09-28T16:36:11.020Z,75494.00
2022-09-28T16:38:38.831Z,75492.00
2022-09-28T16:41:05.921Z,75498.00
2022-09-28T16:43:34.999Z,75502.00
2022-09-28T16:46:12.832Z,75502.00
2022-09-28T16:48:48.704Z,75500.00
2022-09-28T16:51:15.715Z,75498.00
2022-09-28T16:54:00.545Z,75502.00
2022-09-28T16:56:27.796Z,75498.00
2022-09-28T16:58:54.948Z,75498.00
2022-09-28T17:01:22.199Z,75506.00
2022-09-28T17:03:50.162Z,75510.00
2022-09-28T17:06:20.558Z,75510.00
2022-09-28T17:08:46.964Z,75512.00
2022-09-28T17:11:18.126Z,75518.00
2022-09-28T17:13:48.978Z,75514.00
2022-09-28T17:16:17.893Z,75514.00
2022-09-28T17:18:45.166Z,75518.00
2022-09-28T17:21:13.045Z,75518.00
2022-09-28T17:23:39.466Z,75514.00
2022-09-28T17:26:06.232Z,75522.00
2022-09-28T17:28:33.821Z,75520.00
2022-09-28T17:31:00.297Z,75522.00
2022-09-28T17:33:26.688Z,75524.00
2022-09-28T17:35:57.695Z,75526.00
2022-09-28T17:38:24.132Z,75526.00
2022-09-28T17:40:50.666Z,75526.00
2022-09-28T17:43:17.134Z,75526.00
2022-09-28T17:45:46.188Z,75534.03
2022-09-28T17:48:15.735Z,75538.03
2022-09-28T17:50:46.375Z,75542.03
2022-09-28T17:53:13.711Z,75540.03
2022-09-28T17:55:40.507Z,75538.03
2022-09-28T17:58:17.569Z,75536.03
2022-09-28T18:00:45.498Z,75538.03
2022-09-28T18:03:13.737Z,75536.03
2022-09-28T18:05:40.198Z,75536.03
2022-09-28T18:08:06.610Z,75532.03
2022-09-28T18:10:32.967Z,75538.03
2022-09-28T18:12:59.306Z,75538.03
2022-09-28T18:15:25.648Z,75540.03
2022-09-28T18:17:51.979Z,75544.03
2022-09-28T18:20:18.427Z,75544.03
2022-09-28T18:22:44.796Z,75550.03
2022-09-28T18:25:11.197Z,75550.03
2022-09-28T18:27:37.652Z,75552.03
2022-09-28T18:30:04.696Z,75554.03
2022-09-28T18:32:33.284Z,75558.03
2022-09-28T18:34:59.747Z,75562.03
2022-09-28T18:37:26.169Z,75562.03
2022-09-28T18:39:52.515Z,75562.03
2022-09-28T18:42:19.416Z,75570.03
2022-09-28T18:44:45.752Z,75570.03
2022-09-28T18:47:14.467Z,75570.03
2022-09-28T18:49:44.739Z,75574.03
2022-09-28T18:52:12.889Z,75574.03
2022-09-28T18:54:40.262Z,75570.03
2022-09-28T18:57:06.644Z,75566.03
2022-09-28T18:59:33.052Z,75560.03
2022-09-28T19:02:01.652Z,75554.03
2022-09-28T19:04:28.145Z,75554.03
2022-09-28T19:06:54.787Z,75554.03
2022-09-28T19:09:22.235Z,75550.03
2022-09-28T19:11:49.151Z,75546.03
2022-09-28T19:14:15.972Z,75554.03
2022-09-28T19:16:43.399Z,75550.03
2022-09-28T19:19:12.356Z,75556.03
2022-09-28T19:21:39.337Z,75562.03
2022-09-28T19:24:05.809Z,75562.03
2022-09-28T19:26:32.938Z,75566.03
2022-09-28T19:28:59.891Z,75568.03
2022-09-28T19:31:29.334Z,75568.03
2022-09-28T19:33:55.763Z,75576.03
2022-09-28T19:36:24.054Z,75580.03
2022-09-28T19:38:51.511Z,75578.03
2022-09-28T19:41:39.362Z,75582.03
2022-09-28T19:44:29.662Z,75582.03
2022-09-28T19:47:11.607Z,75582.03
2022-09-28T19:49:39.295Z,75588.03
2022-09-28T19:52:13.230Z,75590.03
2022-09-28T19:54:57.319Z,75592.03
2022-09-28T19:57:25.995Z,75596.03
2022-09-28T19:59:54.995Z,75600.03
2022-09-28T20:02:23.331Z,75600.03
2022-09-28T20:04:49.932Z,75598.03
2022-09-28T20:07:16.413Z,75606.06
2022-09-28T20:09:42.807Z,75608.06
2022-09-28T20:12:09.581Z,75610.06
2022-09-28T20:14:38.239Z,75610.06
2022-09-28T20:17:06.838Z,75614.06
2022-09-28T20:19:33.568Z,75618.06
2022-09-28T20:22:02.687Z,75622.06
2022-09-28T20:24:29.339Z,75626.06
2022-09-28T20:26:55.909Z,75630.06
2022-09-28T20:29:23.082Z,75628.06
2022-09-28T20:31:49.483Z,75636.06
2022-09-28T20:34:15.879Z,75634.06
2022-09-28T20:36:43.442Z,75634.06
2022-09-28T20:39:10.230Z,75638.06
2022-09-28T20:41:36.909Z,75644.06
2022-09-28T20:44:05.911Z,75646.06
2022-09-28T20:46:33.345Z,75646.06
2022-09-28T20:48:59.911Z,75650.06
2022-09-28T20:51:26.422Z,75648.06
2022-09-28T20:53:54.023Z,75652.06
2022-09-28T20:56:21.880Z,75656.06
2022-09-28T20:58:50.656Z,75658.06
2022-09-28T21:01:18.702Z,75662.06
2022-09-28T21:03:47.006Z,75666.06
2022-09-28T21:06:14.295Z,75670.06
2022-09-28T21:08:41.191Z,75668.06
2022-09-28T21:11:07.805Z,75666.06
2022-09-28T21:13:34.210Z,75670.06
2022-09-28T21:16:04.298Z,75672.09
2022-09-28T21:18:30.783Z,75676.09
2022-09-28T21:20:57.159Z,75676.09
2022-09-28T21:23:25.100Z,75674.09
2022-09-28T21:26:00.816Z,75674.09
2022-09-28T21:28:27.150Z,75670.06
2022-09-28T21:30:53.598Z,75674.09
2022-09-28T21:33:19.934Z,75674.09
2022-09-28T21:35:46.319Z,75678.09
2022-09-28T21:38:12.616Z,75678.09
2022-09-28T21:40:39.009Z,75684.09
2022-09-28T21:43:05.385Z,75682.09
2022-09-28T21:45:32.008Z,75684.09
2022-09-28T21:48:00.663Z,75690.09
2022-09-28T21:50:27.077Z,75692.09
2022-09-28T21:52:54.413Z,75694.09
2022-09-28T21:55:22.145Z,75698.09
2022-09-28T21:57:50.671Z,75702.09
2022-09-28T22:00:18.603Z,75704.09
2022-09-28T22:02:45.412Z,75708.09
2022-09-28T22:05:12.642Z,75702.09
2022-09-28T22:07:39.907Z,75710.09
2022-09-28T22:10:06.579Z,75708.09
2022-09-28T22:12:33.015Z,75706.09
2022-09-28T22:14:59.367Z,75706.09
2022-09-28T22:17:25.726Z,75708.09
2022-09-28T22:19:52.243Z,75710.09
2022-09-28T22:22:18.676Z,75712.09
2022-09-28T22:24:45.046Z,75710.09
2022-09-28T22:27:11.486Z,75718.09
2022-09-28T22:29:37.791Z,75718.09
2022-09-28T22:32:04.176Z,75714.09
2022-09-28T22:34:31.788Z,75718.09
2022-09-28T22:36:58.792Z,75718.09
2022-09-28T22:39:25.363Z,75726.09
2022-09-28T22:41:52.572Z,75722.09
2022-09-28T22:44:19.781Z,75726.09
2022-09-28T22:46:46.633Z,75726.09
2022-09-28T22:49:13.140Z,75722.09
2022-09-28T22:51:39.753Z,75730.09
2022-09-28T22:54:06.737Z,75734.09
2022-09-28T22:56:33.491Z,75726.09
2022-09-28T22:58:59.904Z,75734.09
2022-09-28T23:01:27.674Z,75734.09
2022-09-28T23:03:55.105Z,75736.13
2022-09-28T23:06:22.671Z,75726.09
2022-09-28T23:08:51.356Z,75734.09
2022-09-28T23:11:17.984Z,75734.09
2022-09-28T23:13:48.448Z,75734.09
2022-09-28T23:16:15.078Z,75734.09
2022-09-28T23:18:41.636Z,75734.09
2022-09-28T23:21:10.783Z,75734.09
2022-09-28T23:23:37.142Z,75734.09
2022-09-28T23:26:13.611Z,75730.09
2022-09-28T23:28:40.183Z,75732.09
2022-09-28T23:31:10.913Z,75736.13
2022-09-28T23:33:37.564Z,75734.09
2022-09-28T23:36:04.012Z,75734.09
2022-09-28T23:38:30.416Z,75738.13
2022-09-28T23:40:57.005Z,75742.13
2022-09-28T23:43:23.501Z,75740.13
2022-09-28T23:45:49.886Z,75734.09
2022-09-28T23:48:16.291Z,75740.13
2022-09-28T23:50:43.538Z,75742.13
2022-09-28T23:53:10.356Z,75742.13
2022-09-28T23:55:36.680Z,75744.13
2022-09-28T23:58:03.403Z,75744.13
